Tropical Cyclones
[Index]
Main Index Home Page Stock Weather Photos Extreme Storms Discussion Storm News and Storm Chasing Reports Tropical Cyclones / Hurricanes / Typhoons Weather Data and Links Wild Fires / Bushfires Weather Observation Techniques Weather Picture Catalogue Tornado Pictures and Reports Stock Video Footage and DVDs for sale
Season 1973-1974 Tropical Cyclone ERICA Track Map
Season 1973-1974 Summaries: [BoM-AU] [JTWC-AU] [JTWC-SIO] [JTWC-SPAC] [JTWC-SH]
<<- Previous TC | BoM 1973-1974 Season | Next TC ->>

click for intensity scale information  Lat/long Grid: Show Hide

 Date Labels: Show Hide

Bureau of Meteorology Tropical Cyclone Data

Name: ERICA
Number: 518 / 197374_08

29 Dec 1973 01:00 UTC to 05 Jan 1974 01:00 UTC

    date/time    lat    long    hPa   cat  kts
1973-12-29 01   17.9   118.7    999                     
1973-12-29 04   17.7   118.3    999                     
1973-12-29 07   17.6   118.3    997                     
1973-12-29 10   17.5   118.6    998                     
1973-12-29 13   17.5   118.7    999                     
1973-12-29 16   17.5   118.8   1000                     
1973-12-29 22   17.6   118.9    998                     
1973-12-30 01   17.4   119.2    999                     
1973-12-30 04   17.3   119.0    995    1                
1973-12-30 07   17.7   119.0    991    1                
1973-12-30 10   17.9   118.9    989    1                
1973-12-30 13   18.0   118.9    987    1                
1973-12-30 16   18.2   118.7    985    2                
1973-12-30 19   18.3   118.6    982    2                
1973-12-30 22   18.5   118.3    980    2                
1973-12-31 01   18.8   118.0    980    2                
1973-12-31 04   19.0   118.0    979    2                
1973-12-31 07   19.2   118.0    977    2                
1973-12-31 10   19.2   117.8    977    2                
1973-12-31 13   20.0   117.1    982    2                
1973-12-31 16   20.5   116.3    985    2                
1973-12-31 19   21.3   115.4    986    1                
1973-12-31 22   22.2   114.7    987    1                
1974-01-01 01   22.8   114.0    988    1                
1974-01-01 04   23.0   113.7    988    1                
1974-01-01 07   23.1   113.4    987    1                
1974-01-01 10   23.2   113.1    988    1                
1974-01-01 13   23.3   112.8    991    1                
1974-01-01 16   23.4   112.3    993    1                
1974-01-01 19   23.4   111.8    993    1                
1974-01-01 22   23.4   111.2    994    1                
1974-01-02 01   23.4   110.6    994    1                
1974-01-02 04   23.2   110.0    994    1                
1974-01-02 07   23.0   109.4    994    1                
1974-01-02 10   22.7   108.8    996                     
1974-01-02 13   22.4   108.2    999                     
1974-01-02 16   22.2   107.6   1002                     
1974-01-02 19   22.0   106.9   1001                     
1974-01-02 22   21.8   106.2   1002                     
1974-01-03 01   21.4   105.6   1003                     
1974-01-03 04   21.4   105.6   1003                     
1974-01-03 07   21.0   104.5   1002                     
1974-01-03 10   20.8   104.0   1003                     
1974-01-03 13   20.5   103.4   1006                     
1974-01-03 16   20.3   102.9   1008                     
1974-01-03 19   20.0   102.3   1007                     
1974-01-03 22   19.7   101.8   1007                     
1974-01-04 01   19.5   101.3   1008                     
1974-01-04 04   19.2   100.7   1008                     
1974-01-04 07   19.0   100.0   1006                     
1974-01-04 10   18.8    99.3   1006                     
1974-01-04 13   18.6    98.7   1007                     
1974-01-04 16   18.4    98.0   1007                     
1974-01-04 19   18.2    97.4   1007                     
1974-01-04 22   18.1    96.7   1009                     
1974-01-05 01   18.0    96.0   1011                     
Winds are 10-min average.

Tropical cyclone tracks developed by Michael Bath using data from the Bureau of Meteorology and Google Maps.


[Australian Severe Weather index] [Copyright Notice] [Email Contacts] [Search This Site] [Privacy Policy]
Document: tropical_cyclone_erica.htm Updated: 30 May 2013